Time;durP1;ratioP1;P1;durP2;ratioP2;P2;SDS_P1;SDS_P2;PMS_P1;PMS_P2;Temp;Humidity;BMP_temperature;BMP_pressure;BME280_temperature;BME280_humidity;BME280_pressure;Samples;Min_cycle;Max_cycle;Signal;HPM_P1;HPM_P2
2022/05/19 00:03:29;;;;;;;16.13;7.65;;;13.00;99.90;;;;;;5022898;28;20033;-64
2022/05/19 00:05:54;;;;;;;15.27;7.50;;;13.00;99.90;;;;;;5024157;28;20024;-64
2022/05/19 00:08:20;;;;;;;13.77;7.07;;;13.00;99.90;;;;;;5024181;28;20273;-64
2022/05/19 00:10:47;;;;;;;12.82;7.57;;;13.00;99.90;;;;;;5023708;28;20025;-64
2022/05/19 00:13:13;;;;;;;12.68;7.38;;;13.00;99.90;;;;;;5006522;28;20034;-64
2022/05/19 00:15:39;;;;;;;12.20;7.00;;;12.90;99.90;;;;;;5022678;28;20093;-64
2022/05/19 00:18:04;;;;;;;15.98;7.70;;;12.80;99.90;;;;;;5024027;28;20316;-64
2022/05/19 00:20:30;;;;;;;13.80;8.00;;;12.80;99.90;;;;;;5022700;28;20029;-64
2022/05/19 00:22:56;;;;;;;13.02;7.72;;;12.80;99.90;;;;;;5006123;28;20292;-64
2022/05/19 00:25:22;;;;;;;12.93;7.18;;;12.80;99.90;;;;;;5023494;28;20037;-64
2022/05/19 00:27:48;;;;;;;12.65;6.63;;;12.70;99.90;;;;;;5005942;28;20028;-64
2022/05/19 00:30:13;;;;;;;13.32;6.50;;;12.80;99.90;;;;;;5023465;28;20041;-64
2022/05/19 00:32:39;;;;;;;12.07;5.95;;;12.80;99.90;;;;;;5023238;28;20268;-64
2022/05/19 00:35:05;;;;;;;10.30;5.68;;;12.80;99.90;;;;;;5022407;28;20094;-64
2022/05/19 00:37:31;;;;;;;8.20;5.25;;;12.90;99.90;;;;;;5006003;28;20224;-64
2022/05/19 00:39:57;;;;;;;8.73;5.20;;;12.90;99.90;;;;;;5005783;28;20022;-64
2022/05/19 00:45:09;;;;;;;14.50;6.85;;;13.00;99.90;;;;;;5022326;28;20049;-64
2022/05/19 00:47:43;;;;;;;11.65;6.63;;;13.00;99.90;;;;;;5022037;28;20028;-63
2022/05/19 00:50:31;;;;;;;11.13;5.78;;;13.00;99.90;;;;;;5022435;28;20049;-64
2022/05/19 00:53:07;;;;;;;10.80;5.68;;;12.90;99.90;;;;;;5008787;28;20022;-64
2022/05/19 00:55:38;;;;;;;14.43;6.60;;;12.80;99.90;;;;;;5023287;28;20208;-64
2022/05/19 00:58:13;;;;;;;12.45;6.00;;;12.70;99.90;;;;;;5022215;28;20336;-64
2022/05/19 01:00:41;;;;;;;16.08;7.25;;;12.70;99.90;;;;;;5025209;28;20385;-63
2022/05/19 01:03:07;;;;;;;13.65;7.40;;;12.60;99.90;;;;;;5026291;28;20026;-64
2022/05/19 01:05:41;;;;;;;16.23;8.45;;;12.50;99.90;;;;;;5026632;28;20324;-64
2022/05/19 01:08:27;;;;;;;14.82;7.75;;;12.50;99.90;;;;;;5025634;28;20156;-64
2022/05/19 01:11:57;;;;;;;13.88;7.18;;;12.40;99.90;;;;;;5024977;28;20071;-64
2022/05/19 01:14:23;;;;;;;9.82;6.55;;;12.50;99.90;;;;;;5026394;28;20057;-64
2022/05/19 01:16:49;;;;;;;15.30;6.88;;;12.50;99.90;;;;;;5026599;28;20363;-64
2022/05/19 01:19:29;;;;;;;12.18;6.93;;;12.50;99.90;;;;;;5026185;28;20106;-64
2022/05/19 01:22:00;;;;;;;9.30;6.25;;;12.50;99.90;;;;;;5026287;28;20021;-64
2022/05/19 01:24:34;;;;;;;8.93;6.13;;;12.60;99.90;;;;;;5025019;28;20248;-63
2022/05/19 01:27:01;;;;;;;13.50;5.85;;;12.60;99.90;;;;;;5026026;28;20021;-63
2022/05/19 01:29:28;;;;;;;11.23;6.55;;;12.60;99.90;;;;;;5025180;28;20217;-64
2022/05/19 01:31:57;;;;;;;13.25;6.88;;;12.70;99.90;;;;;;5025017;28;20379;-64
2022/05/19 01:34:26;;;;;;;9.07;5.63;;;12.70;99.90;;;;;;5008390;28;20053;-64
2022/05/19 01:36:52;;;;;;;10.10;5.55;;;12.60;99.90;;;;;;5025047;28;20026;-64
2022/05/19 01:39:21;;;;;;;10.45;6.00;;;12.60;99.90;;;;;;5012494;28;20023;-63
2022/05/19 01:42:10;;;;;;;9.88;5.55;;;12.60;99.90;;;;;;5005078;28;20030;-63
2022/05/19 01:44:59;;;;;;;15.77;6.75;;;12.50;99.90;;;;;;5005157;28;20022;-64
2022/05/19 01:47:42;;;;;;;14.00;6.82;;;12.40;99.90;;;;;;4982905;28;20030;-64
2022/05/19 01:50:39;;;;;;;9.75;6.97;;;12.40;99.90;;;;;;5005211;28;20018;-63
2022/05/19 01:53:27;;;;;;;11.48;6.63;;;12.30;99.90;;;;;;5007160;28;20046;-63
2022/05/19 01:56:26;;;;;;;11.82;6.35;;;12.10;99.90;;;;;;4991714;28;20023;-63
2022/05/19 01:59:32;;;;;;;13.63;6.30;;;12.10;99.90;;;;;;5004380;28;20022;-64
2022/05/19 02:02:27;;;;;;;10.18;6.03;;;12.00;99.90;;;;;;4993861;28;20053;-64
2022/05/19 02:05:18;;;;;;;11.68;6.47;;;11.90;99.90;;;;;;5008061;28;20032;-64
2022/05/19 02:07:47;;;;;;;17.02;6.45;;;11.90;99.90;;;;;;5024771;28;20028;-64
2022/05/19 02:10:25;;;;;;;8.80;5.85;;;12.00;99.90;;;;;;5007500;28;20044;-64
2022/05/19 02:12:51;;;;;;;9.85;5.95;;;12.10;99.90;;;;;;5023953;28;20022;-64
2022/05/19 02:15:20;;;;;;;12.35;6.20;;;12.10;99.90;;;;;;5007937;28;20049;-64
2022/05/19 02:17:48;;;;;;;10.13;6.00;;;12.10;99.90;;;;;;5024328;28;20097;-64
2022/05/19 02:20:17;;;;;;;11.40;6.72;;;12.10;99.90;;;;;;5025446;28;20089;-64
2022/05/19 02:22:44;;;;;;;8.27;5.97;;;12.10;99.90;;;;;;5007470;28;20025;-64
2022/05/19 02:25:34;;;;;;;9.90;6.35;;;12.00;99.90;;;;;;5024718;28;20030;-64
2022/05/19 02:28:12;;;;;;;10.52;7.18;;;12.10;99.90;;;;;;5024276;28;20022;-63
2022/05/19 02:30:40;;;;;;;12.90;6.95;;;12.00;99.90;;;;;;5024038;28;20021;-64
2022/05/19 02:33:06;;;;;;;12.98;7.10;;;12.00;99.90;;;;;;5024556;28;20029;-63
2022/05/19 02:35:32;;;;;;;11.82;6.75;;;12.00;99.90;;;;;;5024922;28;20028;-64
2022/05/19 02:37:59;;;;;;;12.35;7.45;;;11.90;99.90;;;;;;5023356;28;20217;-64
2022/05/19 02:40:28;;;;;;;10.13;6.68;;;11.90;99.90;;;;;;5024032;28;20028;-65
2022/05/19 02:42:53;;;;;;;10.98;6.63;;;11.90;99.90;;;;;;5007112;28;20376;-63
2022/05/19 02:45:21;;;;;;;10.13;6.25;;;11.90;99.90;;;;;;5007262;28;20076;-63
2022/05/19 02:47:47;;;;;;;11.65;7.07;;;11.90;99.90;;;;;;5023474;28;20022;-64
2022/05/19 02:50:15;;;;;;;10.57;7.15;;;11.80;99.90;;;;;;5024845;28;20374;-63
2022/05/19 02:52:41;;;;;;;11.57;6.90;;;11.80;99.90;;;;;;5023266;28;20029;-63
2022/05/19 02:55:07;;;;;;;13.60;7.70;;;11.80;99.90;;;;;;5023344;28;20024;-63
2022/05/19 02:57:33;;;;;;;9.40;6.72;;;11.80;99.90;;;;;;5024670;28;20341;-63
2022/05/19 02:59:59;;;;;;;14.38;7.47;;;11.90;99.90;;;;;;5022704;28;20061;-63
2022/05/19 03:02:26;;;;;;;10.27;7.13;;;12.00;99.90;;;;;;5024287;28;20025;-64
2022/05/19 03:04:52;;;;;;;11.23;7.05;;;12.00;99.90;;;;;;5023045;28;20025;-63
2022/05/19 03:07:19;;;;;;;9.57;6.75;;;12.00;99.90;;;;;;5007023;28;20018;-64
2022/05/19 03:09:45;;;;;;;11.18;7.30;;;11.90;99.90;;;;;;5023338;28;20033;-64
2022/05/19 03:12:12;;;;;;;11.75;7.03;;;11.90;99.90;;;;;;5024499;28;20053;-64
2022/05/19 03:14:38;;;;;;;14.52;6.82;;;11.90;99.90;;;;;;5023111;28;20030;-64
2022/05/19 03:17:07;;;;;;;12.93;6.47;;;11.90;99.90;;;;;;5023150;28;20259;-64
2022/05/19 03:19:33;;;;;;;12.40;7.07;;;11.90;99.90;;;;;;5024348;28;20057;-64
2022/05/19 03:21:58;;;;;;;10.25;7.05;;;11.80;99.90;;;;;;5023708;28;20031;-64
2022/05/19 03:24:24;;;;;;;10.57;6.47;;;11.80;99.90;;;;;;5022712;28;20262;-63
2022/05/19 03:26:50;;;;;;;10.70;6.85;;;11.80;99.90;;;;;;5023265;28;20075;-64
2022/05/19 03:29:15;;;;;;;10.23;7.10;;;11.70;99.90;;;;;;5006547;28;20026;-64
2022/05/19 03:31:41;;;;;;;10.23;7.72;;;11.80;99.90;;;;;;5023175;28;20076;-64
2022/05/19 03:34:07;;;;;;;16.33;8.15;;;11.70;99.90;;;;;;5023249;28;20026;-64
2022/05/19 03:36:33;;;;;;;17.75;8.45;;;11.80;99.90;;;;;;5022925;28;20022;-64
2022/05/19 03:38:59;;;;;;;12.13;7.90;;;11.80;99.90;;;;;;5006361;28;20022;-64
2022/05/19 03:41:25;;;;;;;14.02;8.30;;;11.80;99.90;;;;;;5023790;28;20025;-64
2022/05/19 03:43:51;;;;;;;14.63;8.68;;;11.80;99.90;;;;;;5023766;28;20037;-65
2022/05/19 03:46:16;;;;;;;15.60;8.00;;;11.80;99.90;;;;;;5022539;28;20370;-64
2022/05/19 03:48:43;;;;;;;14.43;8.60;;;11.80;99.90;;;;;;5022948;28;20030;-64
2022/05/19 03:51:11;;;;;;;13.32;8.27;;;11.80;99.90;;;;;;5006570;28;20185;-64
2022/05/19 03:53:38;;;;;;;18.83;9.00;;;11.80;99.90;;;;;;5022325;28;20029;-64
2022/05/19 03:56:04;;;;;;;15.98;7.95;;;11.70;99.90;;;;;;5022744;28;20061;-64
2022/05/19 03:58:30;;;;;;;11.60;7.10;;;11.70;99.90;;;;;;5023634;28;20256;-64
2022/05/19 04:00:57;;;;;;;14.57;7.10;;;11.70;99.90;;;;;;5004837;28;20217;-64
2022/05/19 04:03:22;;;;;;;19.83;7.30;;;11.60;99.90;;;;;;5022245;28;20061;-64
2022/05/19 04:05:48;;;;;;;12.88;6.35;;;11.60;99.90;;;;;;5023593;28;20032;-64
2022/05/19 04:08:14;;;;;;;12.70;7.13;;;11.60;99.90;;;;;;5022698;28;20348;-64
2022/05/19 04:10:42;;;;;;;18.17;7.25;;;11.60;99.90;;;;;;5022687;28;20050;-64
2022/05/19 04:13:10;;;;;;;11.70;6.90;;;11.70;99.90;;;;;;5022513;28;20029;-64
2022/05/19 04:15:36;;;;;;;11.55;6.60;;;11.70;99.90;;;;;;5023515;28;20093;-64
2022/05/19 04:18:02;;;;;;;13.38;6.68;;;11.80;99.90;;;;;;5006101;28;20080;-64
2022/05/19 04:20:30;;;;;;;9.40;5.97;;;11.90;99.90;;;;;;5005882;28;20025;-64
2022/05/19 04:22:57;;;;;;;10.75;6.00;;;11.70;99.90;;;;;;5006111;28;20049;-64
2022/05/19 04:25:23;;;;;;;13.55;6.15;;;11.70;99.90;;;;;;5023369;28;20022;-64
2022/05/19 04:27:48;;;;;;;8.80;5.35;;;11.70;99.90;;;;;;5022217;28;20072;-64
2022/05/19 04:30:15;;;;;;;13.10;6.38;;;11.80;99.90;;;;;;5006168;28;20063;-64
2022/05/19 04:32:42;;;;;;;15.20;6.25;;;11.90;99.90;;;;;;5022042;28;20080;-64
2022/05/19 04:35:08;;;;;;;9.07;5.80;;;11.90;99.90;;;;;;5026162;28;20018;-64
2022/05/19 04:37:34;;;;;;;15.98;6.25;;;11.90;99.90;;;;;;5027018;28;20034;-64
2022/05/19 04:40:01;;;;;;;15.52;6.07;;;11.90;99.90;;;;;;5026062;28;20217;-64
2022/05/19 04:42:27;;;;;;;18.52;6.80;;;12.10;99.90;;;;;;5027141;28;20096;-64
2022/05/19 04:44:54;;;;;;;12.32;6.15;;;12.10;99.90;;;;;;5009452;28;20068;-64
2022/05/19 04:47:20;;;;;;;12.27;5.63;;;12.20;99.90;;;;;;5025542;28;20359;-64
2022/05/19 04:49:45;;;;;;;14.75;6.20;;;12.20;99.90;;;;;;5026803;28;20018;-64
2022/05/19 04:52:12;;;;;;;20.75;6.80;;;12.30;99.90;;;;;;5025786;28;20025;-64
2022/05/19 04:54:37;;;;;;;14.77;6.03;;;12.30;99.90;;;;;;5026703;28;20025;-64
2022/05/19 04:57:04;;;;;;;15.30;6.45;;;12.40;99.90;;;;;;5025535;28;20309;-64
2022/05/19 04:59:31;;;;;;;15.93;5.28;;;12.30;99.90;;;;;;5026736;28;20057;-64
2022/05/19 05:01:57;;;;;;;16.70;6.07;;;12.40;99.90;;;;;;5024259;28;20026;-64
2022/05/19 05:04:26;;;;;;;16.98;5.93;;;12.50;99.90;;;;;;5026447;28;20029;-64
2022/05/19 05:06:52;;;;;;;14.65;5.38;;;12.60;99.90;;;;;;5006075;28;20026;-64
2022/05/19 05:09:18;;;;;;;14.23;5.40;;;12.60;99.90;;;;;;5005841;28;20230;-64
2022/05/19 05:11:44;;;;;;;14.63;5.65;;;12.70;99.90;;;;;;5005924;28;20028;-64
2022/05/19 05:14:10;;;;;;;13.15;5.35;;;12.70;99.90;;;;;;5005438;28;20030;-64
2022/05/19 05:16:36;;;;;;;13.32;4.93;;;12.80;99.90;;;;;;5005594;28;20062;-64
2022/05/19 05:19:03;;;;;;;13.07;4.93;;;12.80;99.90;;;;;;5005860;28;20040;-64
2022/05/19 05:21:28;;;;;;;17.40;5.72;;;12.90;99.90;;;;;;4989236;28;20325;-64
2022/05/19 05:23:54;;;;;;;12.77;4.65;;;12.90;99.90;;;;;;5005171;28;20026;-64
2022/05/19 05:26:19;;;;;;;15.07;4.60;;;12.90;99.90;;;;;;5006626;28;20037;-64
2022/05/19 05:28:45;;;;;;;13.20;5.40;;;12.90;99.90;;;;;;5006425;28;20028;-65
2022/05/19 05:31:11;;;;;;;11.90;5.00;;;12.90;99.90;;;;;;5006566;28;20049;-64
2022/05/19 05:33:36;;;;;;;15.63;5.13;;;12.90;99.90;;;;;;5006178;28;20041;-64
2022/05/19 05:36:02;;;;;;;21.95;4.60;;;12.90;99.90;;;;;;5006243;28;20085;-65
2022/05/19 05:38:28;;;;;;;18.55;4.32;;;12.90;99.90;;;;;;5006311;28;20022;-64
2022/05/19 05:40:54;;;;;;;22.75;4.50;;;12.90;99.90;;;;;;5006903;28;20030;-64
2022/05/19 05:43:21;;;;;;;21.90;5.43;;;13.00;99.90;;;;;;5024546;28;20041;-64
2022/05/19 05:45:48;;;;;;;18.85;4.22;;;13.10;99.90;;;;;;5024117;28;20212;-64
2022/05/19 05:48:14;;;;;;;17.13;4.18;;;13.10;99.90;;;;;;5025723;28;20026;-65
2022/05/19 05:50:41;;;;;;;21.00;4.68;;;13.10;99.90;;;;;;5024785;28;20089;-65
2022/05/19 05:53:07;;;;;;;22.02;4.60;;;13.10;99.90;;;;;;5024577;28;20029;-64
2022/05/19 05:55:34;;;;;;;19.30;4.72;;;13.30;99.90;;;;;;5008361;28;20053;-66
2022/05/19 05:58:04;;;;;;;25.98;4.60;;;13.40;99.90;;;;;;5024697;28;20063;-65
2022/05/19 06:00:30;;;;;;;16.35;4.00;;;13.50;99.90;;;;;;5024416;28;20099;-65
2022/05/19 06:02:56;;;;;;;20.20;4.10;;;13.60;99.90;;;;;;5023092;28;20041;-65
2022/05/19 06:05:22;;;;;;;19.92;4.47;;;13.70;99.90;;;;;;5025330;28;20085;-65
2022/05/19 06:07:47;;;;;;;14.75;4.13;;;13.80;99.90;;;;;;5024254;28;20340;-65
2022/05/19 06:10:14;;;;;;;21.40;4.57;;;13.80;99.90;;;;;;5025443;28;20140;-65
2022/05/19 06:12:40;;;;;;;15.27;4.30;;;13.90;99.90;;;;;;5025277;28;20033;-65
2022/05/19 06:15:08;;;;;;;18.80;3.70;;;14.00;99.90;;;;;;5008180;28;20248;-65
2022/05/19 06:17:34;;;;;;;25.95;4.32;;;14.00;99.90;;;;;;5023751;28;20041;-64
2022/05/19 06:20:00;;;;;;;23.88;4.25;;;14.10;99.90;;;;;;5024369;28;20034;-65
2022/05/19 06:22:25;;;;;;;18.25;4.68;;;14.10;99.90;;;;;;5007686;28;20029;-65
2022/05/19 06:24:51;;;;;;;26.23;4.45;;;14.20;99.90;;;;;;5024137;28;20029;-64
2022/05/19 06:27:17;;;;;;;17.35;3.70;;;14.30;99.90;;;;;;5024674;28;20028;-65
2022/05/19 06:29:43;;;;;;;24.00;3.92;;;14.40;99.90;;;;;;5024085;28;20037;-66
2022/05/19 06:32:09;;;;;;;19.17;3.67;;;14.40;99.90;;;;;;5024045;28;20036;-66
2022/05/19 06:34:35;;;;;;;22.27;3.60;;;14.40;99.90;;;;;;5023442;28;20029;-65
2022/05/19 06:37:02;;;;;;;22.25;3.75;;;14.40;99.90;;;;;;5023591;28;20026;-67
2022/05/19 06:39:29;;;;;;;17.80;3.20;;;14.50;99.90;;;;;;5023901;28;20080;-65
2022/05/19 06:42:02;;;;;;;22.73;3.85;;;14.50;99.90;;;;;;5024914;28;20021;-66
2022/05/19 06:44:38;;;;;;;21.23;3.20;;;14.50;99.90;;;;;;5023580;28;20049;-66
2022/05/19 06:47:10;;;;;;;19.23;3.17;;;14.60;99.90;;;;;;5023282;28;20100;-66
2022/05/19 06:49:36;;;;;;;;;;;14.60;99.90;;;;;;5024068;28;20205;-65
2022/05/19 06:52:03;;;;;;;15.98;3.17;;;14.60;99.90;;;;;;5024680;28;19909;-65
2022/05/19 06:54:28;;;;;;;21.45;4.65;;;14.80;99.90;;;;;;5023483;28;20363;-65
2022/05/19 06:56:54;;;;;;;23.40;3.60;;;14.90;99.90;;;;;;5023843;28;20026;-65
2022/05/19 06:59:22;;;;;;;26.13;4.43;;;14.90;99.90;;;;;;5024514;28;20053;-65
2022/05/19 07:01:48;;;;;;;21.80;5.93;;;15.00;99.90;;;;;;5023466;28;20021;-67
2022/05/19 07:04:15;;;;;;;20.17;3.67;;;15.00;99.90;;;;;;5022278;28;20029;-64
2022/05/19 07:06:41;;;;;;;20.85;3.45;;;15.00;99.90;;;;;;5022659;28;20333;-65
2022/05/19 07:09:07;;;;;;;21.75;3.42;;;15.10;99.90;;;;;;5023006;28;20022;-66
2022/05/19 07:11:33;;;;;;;23.52;3.95;;;15.20;99.90;;;;;;5020027;28;20026;-66
2022/05/19 07:14:03;;;;;;;16.25;3.22;;;15.40;99.90;;;;;;5022405;28;20088;-66
2022/05/19 07:16:30;;;;;;;24.75;3.60;;;15.60;99.90;;;;;;5023102;28;20137;-67
2022/05/19 07:21:43;;;;;;;26.40;3.58;;;15.70;99.90;;;;;;5021485;28;20057;-67
2022/05/19 07:24:16;;;;;;;24.75;4.07;;;15.70;99.90;;;;;;5022210;28;20241;-66
2022/05/19 07:26:44;;;;;;;17.52;3.65;;;15.70;99.90;;;;;;5006728;28;20022;-67
2022/05/19 07:29:10;;;;;;;26.60;3.53;;;15.60;99.90;;;;;;5021776;28;20093;-67
2022/05/19 07:31:36;;;;;;;23.48;4.22;;;15.60;99.90;;;;;;5019624;28;20053;-68
2022/05/19 07:34:04;;;;;;;23.30;3.80;;;15.70;99.90;;;;;;5022782;28;20044;-66
2022/05/19 07:36:31;;;;;;;18.90;3.25;;;15.70;99.90;;;;;;5022341;28;20328;-68
2022/05/19 07:38:59;;;;;;;24.48;3.78;;;15.80;99.90;;;;;;5001858;28;20229;-66
2022/05/19 07:41:26;;;;;;;25.33;3.47;;;16.00;99.90;;;;;;5020153;28;20096;-67
2022/05/19 07:43:52;;;;;;;43.05;5.03;;;16.00;99.90;;;;;;5005326;28;20216;-66
2022/05/19 07:46:18;;;;;;;19.92;2.83;;;16.20;99.90;;;;;;5022036;28;20064;-67
2022/05/19 07:48:44;;;;;;;26.10;3.28;;;16.10;99.90;;;;;;5022447;28;20052;-66
2022/05/19 07:51:10;;;;;;;28.77;3.72;;;16.00;99.90;;;;;;5023681;28;20060;-67
2022/05/19 07:53:36;;;;;;;31.50;3.88;;;15.90;99.90;;;;;;5023372;28;20049;-66
2022/05/19 07:56:02;;;;;;;26.25;3.50;;;15.90;99.90;;;;;;5017578;28;20049;-66
2022/05/19 07:58:29;;;;;;;23.65;3.17;;;15.90;99.90;;;;;;5021043;28;20036;-67
2022/05/19 08:00:56;;;;;;;20.58;2.83;;;15.80;99.90;;;;;;5009374;28;20264;-66
2022/05/19 08:03:23;;;;;;;20.73;2.90;;;15.60;99.90;;;;;;5012306;28;20036;-65
2022/05/19 08:05:49;;;;;;;16.30;3.00;;;15.70;99.90;;;;;;5014991;28;20104;-65
2022/05/19 08:08:14;;;;;;;25.35;4.05;;;15.70;99.90;;;;;;5030317;28;20021;-65
2022/05/19 08:10:40;;;;;;;29.35;3.60;;;15.70;99.90;;;;;;5006444;28;20213;-67
2022/05/19 08:15:52;;;;;;;21.08;3.20;;;15.80;99.90;;;;;;5006794;28;20022;-65
2022/05/19 08:18:20;;;;;;;24.00;3.60;;;15.70;99.90;;;;;;5026549;28;20332;-66
2022/05/19 08:20:52;;;;;;;18.83;3.50;;;15.60;99.90;;;;;;5027408;28;20085;-66
2022/05/19 08:23:21;;;;;;;25.48;3.83;;;15.60;99.90;;;;;;5026884;28;20038;-68
2022/05/19 08:25:47;;;;;;;17.15;2.75;;;15.60;99.90;;;;;;5009573;28;20026;-66
2022/05/19 08:28:16;;;;;;;20.05;2.70;;;15.80;99.90;;;;;;5025672;28;20061;-67
2022/05/19 08:30:47;;;;;;;25.40;3.95;;;16.00;99.90;;;;;;5003964;28;20321;-66
2022/05/19 08:33:15;;;;;;;28.65;3.47;;;16.10;99.90;;;;;;5019310;28;20065;-67
2022/05/19 08:35:42;;;;;;;16.27;3.05;;;16.30;99.90;;;;;;5007784;28;20245;-65
2022/05/19 08:38:07;;;;;;;25.30;3.05;;;16.40;99.90;;;;;;5024003;28;20056;-65
2022/05/19 08:40:40;;;;;;;24.55;3.47;;;16.40;99.90;;;;;;5026397;28;20057;-67
2022/05/19 08:43:07;;;;;;;28.08;3.55;;;16.50;99.90;;;;;;5025219;28;20105;-66
2022/05/19 08:45:47;;;;;;;16.42;2.83;;;16.60;99.90;;;;;;5026674;28;20076;-67
2022/05/19 08:48:20;;;;;;;18.85;2.90;;;16.70;99.90;;;;;;5018589;28;20094;-67
2022/05/19 08:50:54;;;;;;;29.80;3.38;;;16.90;99.90;;;;;;4994538;28;20022;-69
2022/05/19 08:53:20;;;;;;;22.02;3.20;;;16.80;99.40;;;;;;5025318;28;20048;-67
2022/05/19 08:55:50;;;;;;;24.70;2.95;;;16.80;99.80;;;;;;5008634;28;20297;-66
2022/05/19 08:58:43;;;;;;;22.45;3.30;;;16.80;99.80;;;;;;5026378;28;20252;-67
2022/05/19 09:01:15;;;;;;;20.48;2.97;;;17.10;99.10;;;;;;5008950;28;20250;-66
2022/05/19 09:03:52;;;;;;;23.83;3.28;;;17.40;98.50;;;;;;5025745;28;20066;-66
2022/05/19 09:07:56;;;;;;;21.33;3.03;;;17.70;97.60;;;;;;5003536;28;20110;-67
2022/05/19 09:09:40;;;;;;;20.67;2.90;;;18.00;96.90;;;;;;5012863;28;20027;-66
2022/05/19 09:12:10;;;;;;;22.80;3.50;;;18.00;96.10;;;;;;5005023;28;20036;-67
2022/05/19 09:14:36;;;;;;;19.10;3.42;;;18.00;97.00;;;;;;5009145;28;20093;-67
2022/05/19 09:17:07;;;;;;;28.90;3.25;;;18.20;97.20;;;;;;5025142;28;20018;-67
2022/05/19 09:19:53;;;;;;;22.70;3.15;;;18.30;95.90;;;;;;5023777;28;20217;-66
2022/05/19 09:22:23;;;;;;;17.70;3.85;;;18.60;96.20;;;;;;5021035;28;20033;-67
2022/05/19 09:24:50;;;;;;;24.77;3.55;;;18.50;95.40;;;;;;5025621;28;20061;-67
2022/05/19 09:27:19;;;;;;;14.55;2.63;;;18.40;95.20;;;;;;5024091;28;20034;-66
2022/05/19 09:29:49;;;;;;;27.73;3.28;;;18.30;95.20;;;;;;4988384;28;20351;-66
2022/05/19 09:32:29;;;;;;;18.02;3.13;;;18.30;95.50;;;;;;5005967;28;20029;-66
2022/05/19 09:35:20;;;;;;;20.48;3.00;;;18.30;95.50;;;;;;5009094;28;20025;-66
2022/05/19 09:37:49;;;;;;;19.70;2.63;;;18.10;95.70;;;;;;5024632;28;20503;-67
2022/05/19 09:40:28;;;;;;;15.95;2.70;;;18.00;95.40;;;;;;4990337;28;20026;-67
2022/05/19 09:42:59;;;;;;;17.40;2.28;;;17.80;95.80;;;;;;4997849;28;20224;-67
2022/05/19 09:45:27;;;;;;;15.63;2.10;;;17.50;93.80;;;;;;5024007;28;20328;-66
2022/05/19 09:47:58;;;;;;;30.63;3.92;;;17.40;94.50;;;;;;5023941;28;20304;-68
2022/05/19 09:50:27;;;;;;;17.80;2.92;;;17.50;95.80;;;;;;5024512;28;20022;-67
2022/05/19 09:53:03;;;;;;;19.02;3.42;;;17.60;95.70;;;;;;5007096;28;20022;-66
2022/05/19 09:55:30;;;;;;;16.77;3.20;;;17.60;95.70;;;;;;5008023;28;20025;-67
2022/05/19 09:57:58;;;;;;;17.23;2.50;;;17.60;96.10;;;;;;5023737;28;20044;-66
2022/05/19 10:00:43;;;;;;;15.93;2.50;;;17.50;95.40;;;;;;5022784;28;20060;-66
2022/05/19 10:03:12;;;;;;;15.13;2.00;;;17.30;95.60;;;;;;5023915;28;20243;-67
2022/05/19 10:05:49;;;;;;;18.50;2.72;;;17.30;96.30;;;;;;5021009;28;20083;-67
2022/05/19 10:08:38;;;;;;;24.70;3.33;;;17.30;96.80;;;;;;5023229;28;20021;-67
2022/05/19 10:11:18;;;;;;;20.77;3.30;;;17.30;96.70;;;;;;5022959;28;20072;-66
2022/05/19 10:13:48;;;;;;;18.58;3.10;;;17.40;96.90;;;;;;5009327;28;20029;-66
2022/05/19 10:16:53;;;;;;;17.42;2.72;;;17.70;95.70;;;;;;5023368;28;20041;-67
2022/05/19 10:19:59;;;;;;;18.25;2.70;;;17.90;96.10;;;;;;5006318;28;20089;-69
2022/05/19 10:23:04;;;;;;;17.42;2.10;;;18.00;95.40;;;;;;4990180;28;20213;-68
2022/05/19 10:25:48;;;;;;;18.17;2.42;;;17.60;96.70;;;;;;5007240;28;20087;-67
2022/05/19 10:32:06;;;;;;;14.98;2.90;;;17.30;96.40;;;;;;5001941;28;20089;-67
2022/05/19 10:35:06;;;;;;;15.60;2.63;;;17.60;95.70;;;;;;5023094;28;20024;-66
2022/05/19 10:38:11;;;;;;;23.80;3.08;;;17.70;94.80;;;;;;5023542;28;20017;-66
2022/05/19 10:41:04;;;;;;;11.60;1.73;;;17.60;94.30;;;;;;4995195;28;20033;-65
2022/05/19 10:43:52;;;;;;;19.10;3.20;;;17.60;94.50;;;;;;5021333;28;20223;-67
2022/05/19 10:46:20;;;;;;;12.15;2.42;;;17.90;94.40;;;;;;5024187;28;20095;-66
2022/05/19 10:49:20;;;;;;;13.00;2.13;;;18.30;93.20;;;;;;5022898;28;20017;-68
2022/05/19 10:52:15;;;;;;;9.18;1.50;;;18.20;93.30;;;;;;5018916;28;20052;-65
2022/05/19 10:55:08;;;;;;;14.50;2.13;;;18.20;92.20;;;;;;5022600;28;20267;-68
2022/05/19 10:58:14;;;;;;;13.70;2.45;;;18.30;92.50;;;;;;5022652;28;20129;-66
2022/05/19 11:01:19;;;;;;;11.90;2.08;;;18.40;91.80;;;;;;5022812;28;20105;-67
2022/05/19 11:04:08;;;;;;;15.18;2.22;;;18.40;91.30;;;;;;5022412;28;20033;-69
2022/05/19 11:07:08;;;;;;;12.52;1.80;;;18.30;91.30;;;;;;5017862;28;20155;-69
2022/05/19 11:09:59;;;;;;;18.65;2.67;;;18.20;91.40;;;;;;5015759;28;20038;-68
2022/05/19 11:12:36;;;;;;;15.05;2.15;;;18.30;91.50;;;;;;5022491;28;20025;-67
2022/05/19 11:15:41;;;;;;;15.82;2.25;;;18.70;91.70;;;;;;5002845;28;20030;-67
2022/05/19 11:18:33;;;;;;;9.10;1.77;;;18.70;89.80;;;;;;4995400;28;20098;-68
2022/05/19 11:21:19;;;;;;;16.63;1.88;;;18.70;90.50;;;;;;5006046;28;20101;-67
2022/05/19 11:24:09;;;;;;;14.63;2.47;;;18.70;90.90;;;;;;5021929;28;20030;-67
2022/05/19 11:26:58;;;;;;;20.52;2.00;;;18.90;90.90;;;;;;5021675;28;20026;-66
2022/05/19 11:29:45;;;;;;;12.73;2.22;;;18.70;88.40;;;;;;5021923;28;20026;-68
2022/05/19 11:32:22;;;;;;;8.68;2.00;;;18.40;90.20;;;;;;5022612;28;20048;-67
2022/05/19 11:34:55;;;;;;;10.25;1.80;;;18.40;91.40;;;;;;5014228;28;20030;-68
2022/05/19 11:37:34;;;;;;;9.35;1.63;;;18.40;90.80;;;;;;5021477;28;20312;-65
2022/05/19 11:40:28;;;;;;;11.80;1.75;;;18.40;90.70;;;;;;5021417;28;20352;-67
2022/05/19 11:43:09;;;;;;;15.52;2.22;;;18.50;90.60;;;;;;5008866;28;20030;-67
2022/05/19 11:46:18;;;;;;;17.80;2.40;;;18.90;91.20;;;;;;5023097;28;20022;-65
2022/05/19 11:55:18;;;;;;;8.48;1.50;;;19.40;88.90;;;;;;5002503;28;20368;-67
2022/05/19 11:58:09;;;;;;;10.38;1.90;;;19.30;87.30;;;;;;5004808;28;20018;-67
2022/05/19 12:00:59;;;;;;;12.85;1.95;;;19.10;87.70;;;;;;5022229;28;20054;-68
2022/05/19 12:03:55;;;;;;;13.45;2.55;;;18.90;88.90;;;;;;5021270;28;20379;-67
2022/05/19 12:06:29;;;;;;;18.83;3.03;;;19.10;89.50;;;;;;5023444;28;20026;-67
2022/05/19 12:08:59;;;;;;;10.55;2.10;;;19.10;88.70;;;;;;5019506;28;20085;-68
2022/05/19 12:11:48;;;;;;;10.10;1.70;;;19.20;89.20;;;;;;5022191;28;20030;-69
2022/05/19 12:14:33;;;;;;;9.98;1.60;;;19.40;88.60;;;;;;5021954;28;20235;-67
2022/05/19 12:17:28;;;;;;;10.45;2.03;;;19.40;89.20;;;;;;5006179;28;20026;-68
2022/05/19 12:19:57;;;;;;;7.78;1.73;;;19.50;90.40;;;;;;5022103;28;20025;-68
2022/05/19 12:22:37;;;;;;;10.93;1.55;;;19.70;87.50;;;;;;5021211;28;20026;-68
2022/05/19 12:25:20;;;;;;;9.65;1.83;;;19.80;87.10;;;;;;5020046;28;20096;-69
2022/05/19 12:28:25;;;;;;;12.52;2.17;;;19.80;87.90;;;;;;4983814;28;20025;-68
2022/05/19 12:34:01;;;;;;;11.70;1.90;;;19.90;88.70;;;;;;4997281;28;20026;-66
2022/05/19 12:36:51;;;;;;;12.32;2.28;;;20.00;87.60;;;;;;4987890;28;20241;-65
2022/05/19 12:39:50;;;;;;;11.60;2.40;;;20.10;87.00;;;;;;5012186;28;20033;-68
2022/05/19 12:42:38;;;;;;;10.68;2.63;;;19.90;88.00;;;;;;5021165;28;20052;-66
2022/05/19 12:45:27;;;;;;;11.43;2.10;;;19.50;88.80;;;;;;4974832;28;20065;-66
2022/05/19 12:48:25;;;;;;;13.65;2.33;;;19.50;87.70;;;;;;5008632;28;20018;-65
2022/05/19 12:51:13;;;;;;;8.55;1.70;;;19.60;86.90;;;;;;4997078;28;20049;-66
2022/05/19 12:54:02;;;;;;;10.90;1.58;;;19.80;86.80;;;;;;5000809;28;20100;-65
2022/05/19 12:56:56;;;;;;;9.27;1.67;;;20.10;86.40;;;;;;5020588;28;20025;-68
2022/05/19 12:59:44;;;;;;;10.32;2.17;;;20.40;84.50;;;;;;5024273;28;20046;-65
2022/05/19 13:02:22;;;;;;;8.40;1.92;;;20.30;84.80;;;;;;5024546;28;20312;-67
2022/05/19 13:04:55;;;;;;;9.63;1.92;;;20.10;85.70;;;;;;5024484;28;20069;-67
2022/05/19 13:07:32;;;;;;;6.00;1.40;;;19.90;85.10;;;;;;5025911;28;20022;-68
2022/05/19 13:10:22;;;;;;;8.45;1.60;;;20.00;84.80;;;;;;5022973;28;20140;-67
2022/05/19 13:13:01;;;;;;;17.33;2.15;;;20.10;85.60;;;;;;5008264;28;20025;-67
2022/05/19 13:15:32;;;;;;;8.55;1.65;;;20.20;86.40;;;;;;5024525;28;20045;-67
2022/05/19 13:18:04;;;;;;;9.73;2.27;;;20.30;84.60;;;;;;5025332;28;20034;-67
2022/05/19 13:20:34;;;;;;;9.93;2.05;;;20.40;85.50;;;;;;5026087;28;20026;-67
2022/05/19 13:23:05;;;;;;;12.15;2.10;;;20.60;83.60;;;;;;5024186;28;20233;-66
2022/05/19 13:25:33;;;;;;;12.68;1.98;;;20.60;83.70;;;;;;5008020;28;20014;-68
2022/05/19 13:30:57;;;;;;;11.88;1.90;;;20.50;83.30;;;;;;5010005;28;20010;-68
2022/05/19 13:33:30;;;;;;;13.95;2.05;;;20.50;83.40;;;;;;5007879;28;20037;-68
2022/05/19 13:36:01;;;;;;;7.15;1.88;;;20.40;83.50;;;;;;5023325;28;20018;-66